createdAt,value
2022-12-05T00:01:44.772Z,100.00
2022-12-05T00:04:15.159Z,100.00
2022-12-05T00:06:43.609Z,100.00
2022-12-05T00:09:13.898Z,100.00
2022-12-05T00:11:44.331Z,100.00
2022-12-05T00:14:13.310Z,100.00
2022-12-05T00:16:44.975Z,100.00
2022-12-05T00:19:16.120Z,100.00
2022-12-05T00:21:44.462Z,100.00
2022-12-05T00:24:15.954Z,100.00
2022-12-05T00:26:44.847Z,100.00
2022-12-05T00:29:12.935Z,100.00
2022-12-05T00:31:40.646Z,100.00
2022-12-05T00:34:08.248Z,100.00
2022-12-05T00:36:37.199Z,100.00
2022-12-05T00:39:11.692Z,100.00
2022-12-05T00:41:39.573Z,100.00
2022-12-05T00:44:07.379Z,100.00
2022-12-05T00:46:36.647Z,100.00
2022-12-05T00:49:07.497Z,100.00
2022-12-05T00:51:39.188Z,100.00
2022-12-05T00:54:14.996Z,100.00
2022-12-05T00:56:44.400Z,100.00
2022-12-05T00:59:18.679Z,100.00
2022-12-05T01:01:48.729Z,100.00
2022-12-05T01:04:23.807Z,100.00
2022-12-05T01:06:56.428Z,100.00
2022-12-05T01:09:25.568Z,100.00
2022-12-05T01:11:53.440Z,100.00
2022-12-05T01:14:24.381Z,100.00
2022-12-05T01:16:55.196Z,100.00
2022-12-05T01:19:27.897Z,100.00
2022-12-05T01:21:56.730Z,100.00
2022-12-05T01:24:26.073Z,100.00
2022-12-05T01:26:54.797Z,100.00
2022-12-05T01:29:24.788Z,100.00
2022-12-05T01:31:52.849Z,100.00
2022-12-05T01:34:20.987Z,100.00
2022-12-05T01:36:49.212Z,100.00
2022-12-05T01:39:17.419Z,100.00
2022-12-05T01:41:48.501Z,100.00
2022-12-05T01:44:15.986Z,100.00
2022-12-05T01:46:50.390Z,100.00
2022-12-05T01:49:23.006Z,100.00
2022-12-05T01:52:20.869Z,100.00
2022-12-05T01:54:52.148Z,100.00
2022-12-05T01:57:19.754Z,100.00
2022-12-05T01:59:53.600Z,100.00
2022-12-05T02:02:21.693Z,100.00
2022-12-05T02:05:06.547Z,100.00
2022-12-05T02:07:35.663Z,100.00
2022-12-05T02:10:03.597Z,100.00
2022-12-05T02:12:31.295Z,100.00
2022-12-05T02:15:19.576Z,100.00
2022-12-05T02:17:53.157Z,100.00
2022-12-05T02:20:30.839Z,100.00
2022-12-05T02:23:34.949Z,100.00
2022-12-05T02:26:05.066Z,100.00
2022-12-05T02:29:32.090Z,100.00
2022-12-05T02:32:16.913Z,100.00
2022-12-05T02:35:12.463Z,100.00
2022-12-05T02:38:11.304Z,100.00
2022-12-05T02:40:55.420Z,100.00
2022-12-05T02:43:44.244Z,100.00
2022-12-05T02:46:23.775Z,100.00
2022-12-05T02:49:00.585Z,100.00
2022-12-05T02:51:33.933Z,100.00
2022-12-05T02:54:07.423Z,100.00
2022-12-05T02:56:38.093Z,100.00
2022-12-05T02:59:05.644Z,100.00
2022-12-05T03:01:33.745Z,100.00
2022-12-05T03:04:05.126Z,100.00
2022-12-05T03:06:42.116Z,100.00
2022-12-05T03:09:25.927Z,100.00
2022-12-05T03:12:31.375Z,100.00
2022-12-05T03:15:04.101Z,100.00
2022-12-05T03:17:41.470Z,100.00
2022-12-05T03:20:31.995Z,100.00
2022-12-05T03:23:20.705Z,100.00
2022-12-05T03:26:25.133Z,100.00
2022-12-05T03:29:11.955Z,100.00
2022-12-05T03:31:47.858Z,100.00
2022-12-05T03:34:31.494Z,100.00
2022-12-05T03:37:06.298Z,100.00
2022-12-05T03:39:39.316Z,100.00
2022-12-05T03:42:24.199Z,100.00
2022-12-05T03:45:34.707Z,100.00
2022-12-05T03:48:36.708Z,100.00
2022-12-05T03:51:07.969Z,100.00
2022-12-05T03:54:21.656Z,100.00
2022-12-05T03:57:00.140Z,100.00
2022-12-05T04:00:01.232Z,100.00
2022-12-05T04:03:09.715Z,100.00
2022-12-05T04:05:56.728Z,100.00
2022-12-05T04:08:35.903Z,100.00
2022-12-05T04:11:13.881Z,100.00
2022-12-05T04:13:56.154Z,100.00
2022-12-05T04:17:03.379Z,100.00
2022-12-05T04:20:30.152Z,100.00
2022-12-05T04:22:58.306Z,100.00
2022-12-05T04:25:36.147Z,100.00
2022-12-05T04:28:22.175Z,100.00
2022-12-05T04:31:18.402Z,100.00
2022-12-05T04:33:50.833Z,100.00
2022-12-05T04:36:50.402Z,100.00
2022-12-05T04:39:29.440Z,100.00
2022-12-05T04:42:06.680Z,100.00
2022-12-05T04:44:42.937Z,100.00
2022-12-05T04:47:14.924Z,100.00
2022-12-05T04:49:53.682Z,100.00
2022-12-05T04:52:23.074Z,100.00
2022-12-05T04:55:01.518Z,100.00
2022-12-05T04:57:36.947Z,100.00
2022-12-05T05:00:09.605Z,100.00
2022-12-05T05:03:00.981Z,100.00
2022-12-05T05:05:29.912Z,100.00
2022-12-05T05:07:57.692Z,100.00
2022-12-05T05:10:42.372Z,100.00
2022-12-05T05:13:09.829Z,100.00
2022-12-05T05:15:37.327Z,100.00
2022-12-05T05:18:05.089Z,100.00
2022-12-05T05:20:32.597Z,100.00
2022-12-05T05:23:00.139Z,100.00
2022-12-05T05:25:27.719Z,100.00
2022-12-05T05:27:57.348Z,100.00
2022-12-05T05:30:25.786Z,100.00
2022-12-05T05:32:54.051Z,100.00
2022-12-05T05:35:21.996Z,100.00
2022-12-05T05:37:49.487Z,100.00
2022-12-05T05:40:17.436Z,100.00
2022-12-05T05:42:47.575Z,100.00
2022-12-05T05:45:16.319Z,100.00
2022-12-05T05:47:44.342Z,100.00
2022-12-05T05:50:16.434Z,100.00
2022-12-05T05:52:48.872Z,100.00
2022-12-05T05:55:16.365Z,100.00
2022-12-05T05:57:43.840Z,100.00
2022-12-05T06:00:12.792Z,100.00
2022-12-05T06:02:40.489Z,100.00
2022-12-05T06:05:08.745Z,100.00
2022-12-05T06:07:36.283Z,100.00
2022-12-05T06:10:05.285Z,100.00
2022-12-05T06:12:32.925Z,100.00
2022-12-05T06:15:00.338Z,100.00
2022-12-05T06:17:27.759Z,100.00
2022-12-05T06:19:55.610Z,100.00
2022-12-05T06:22:23.576Z,100.00
2022-12-05T06:24:51.846Z,100.00
2022-12-05T06:27:19.253Z,100.00
2022-12-05T06:29:46.706Z,100.00
2022-12-05T06:32:14.198Z,100.00
2022-12-05T06:34:41.768Z,100.00
2022-12-05T06:37:09.436Z,100.00
2022-12-05T06:39:36.951Z,100.00
2022-12-05T06:42:04.566Z,100.00
2022-12-05T06:44:32.293Z,100.00
2022-12-05T06:46:59.757Z,100.00
2022-12-05T06:49:37.450Z,100.00
2022-12-05T06:52:05.797Z,100.00
2022-12-05T06:54:33.416Z,100.00
2022-12-05T06:57:00.915Z,100.00
2022-12-05T06:59:31.429Z,100.00
2022-12-05T07:01:58.947Z,100.00
2022-12-05T07:04:26.571Z,100.00
2022-12-05T07:06:56.442Z,100.00
2022-12-05T07:09:45.170Z,100.00
2022-12-05T07:12:15.426Z,100.00
2022-12-05T07:14:48.783Z,100.00
2022-12-05T07:17:21.663Z,100.00
2022-12-05T07:19:53.358Z,100.00
2022-12-05T07:22:22.904Z,100.00
2022-12-05T07:24:53.259Z,100.00
2022-12-05T07:27:26.798Z,100.00
2022-12-05T07:29:55.247Z,100.00
2022-12-05T07:32:22.906Z,100.00
2022-12-05T07:34:55.019Z,100.00
2022-12-05T07:37:23.948Z,100.00
2022-12-05T07:39:55.419Z,100.00
2022-12-05T07:42:26.089Z,100.00
2022-12-05T07:44:53.642Z,100.00
2022-12-05T07:47:21.229Z,100.00
2022-12-05T07:49:48.880Z,100.00
2022-12-05T07:52:16.369Z,100.00
2022-12-05T07:54:43.900Z,100.00
2022-12-05T07:57:11.438Z,100.00
2022-12-05T07:59:38.939Z,100.00
2022-12-05T08:02:06.943Z,100.00
2022-12-05T08:04:34.462Z,100.00
2022-12-05T08:07:01.913Z,100.00
2022-12-05T08:09:29.467Z,100.00
2022-12-05T08:11:56.886Z,100.00
2022-12-05T08:14:24.490Z,100.00
2022-12-05T08:16:51.985Z,100.00
2022-12-05T08:19:19.531Z,100.00
2022-12-05T08:21:47.197Z,100.00
2022-12-05T08:24:15.049Z,100.00
2022-12-05T08:26:42.576Z,100.00
2022-12-05T08:29:14.082Z,100.00
2022-12-05T08:31:48.124Z,100.00
2022-12-05T08:34:18.010Z,98.30
2022-12-05T08:36:46.212Z,99.91
2022-12-05T08:39:17.354Z,99.99
2022-12-05T08:41:46.512Z,97.04
2022-12-05T08:44:17.092Z,98.26
2022-12-05T08:46:47.565Z,95.18
2022-12-05T08:49:15.287Z,91.28
2022-12-05T08:51:43.937Z,91.31
2022-12-05T08:54:11.772Z,92.79
2022-12-05T08:56:39.641Z,90.48
2022-12-05T08:59:07.967Z,90.23
2022-12-05T09:01:38.769Z,93.42
2022-12-05T09:04:07.775Z,93.29
2022-12-05T09:06:36.088Z,93.41
2022-12-05T09:09:07.948Z,92.43
2022-12-05T09:11:41.559Z,96.12
2022-12-05T09:14:09.296Z,91.29
2022-12-05T09:16:39.498Z,80.12
2022-12-05T09:19:21.010Z,77.08
2022-12-05T09:21:48.829Z,77.17
2022-12-05T09:24:16.326Z,77.73
2022-12-05T09:26:44.117Z,78.12
2022-12-05T09:29:17.709Z,79.14
2022-12-05T09:31:48.682Z,76.55
2022-12-05T09:34:18.542Z,73.07
2022-12-05T09:36:55.686Z,70.88
2022-12-05T09:39:26.127Z,70.93
2022-12-05T09:42:20.825Z,69.85
2022-12-05T09:45:15.271Z,63.41
2022-12-05T09:47:46.534Z,59.75
2022-12-05T09:50:28.541Z,62.31
2022-12-05T09:53:09.635Z,63.93
2022-12-05T09:55:47.507Z,61.24
2022-12-05T09:58:27.855Z,60.88
2022-12-05T10:01:11.839Z,63.44
2022-12-05T10:03:53.121Z,64.28
2022-12-05T10:06:47.765Z,63.91
2022-12-05T10:09:38.892Z,67.48
2022-12-05T10:12:44.001Z,60.92
2022-12-05T10:15:30.286Z,65.22
2022-12-05T10:18:04.750Z,67.25
2022-12-05T10:21:01.560Z,70.31
2022-12-05T10:23:57.027Z,66.55
2022-12-05T10:26:36.751Z,62.18
2022-12-05T10:29:29.748Z,61.75
2022-12-05T10:32:14.389Z,64.10
2022-12-05T10:34:45.435Z,67.06
2022-12-05T10:37:21.894Z,66.25
2022-12-05T10:39:52.104Z,65.52
2022-12-05T10:42:31.876Z,67.26
2022-12-05T10:45:07.599Z,67.84
2022-12-05T10:47:36.185Z,66.00
2022-12-05T10:50:35.660Z,66.14
2022-12-05T10:53:08.098Z,68.11
2022-12-05T10:55:54.752Z,68.77
2022-12-05T10:58:30.917Z,72.79
2022-12-05T11:01:14.751Z,74.75
2022-12-05T11:03:44.469Z,72.69
2022-12-05T11:06:25.994Z,73.48
2022-12-05T11:09:21.296Z,71.98
2022-12-05T11:12:27.800Z,75.24
2022-12-05T11:15:25.011Z,75.08
2022-12-05T11:17:58.769Z,73.59
2022-12-05T11:20:26.239Z,71.37
2022-12-05T11:22:56.586Z,68.22
2022-12-05T11:25:38.006Z,69.20
2022-12-05T11:28:17.390Z,70.76
2022-12-05T11:31:16.804Z,72.57
2022-12-05T11:33:44.605Z,73.29
2022-12-05T11:36:24.440Z,73.80
2022-12-05T11:38:52.246Z,74.79
2022-12-05T11:42:01.543Z,76.94
2022-12-05T11:45:00.872Z,73.96
2022-12-05T11:47:56.853Z,75.28
2022-12-05T11:51:05.170Z,76.09
2022-12-05T11:53:56.731Z,73.87
2022-12-05T11:56:39.303Z,76.64
2022-12-05T11:59:38.510Z,76.91
2022-12-05T12:02:52.666Z,73.94
2022-12-05T12:05:47.535Z,72.41
2022-12-05T12:08:27.903Z,73.56
2022-12-05T12:11:17.533Z,75.06
2022-12-05T12:13:56.593Z,76.05
2022-12-05T12:17:10.251Z,76.00
2022-12-05T12:19:58.696Z,77.94
2022-12-05T12:22:44.686Z,76.85
2022-12-05T12:25:39.539Z,75.29
2022-12-05T12:28:24.814Z,72.63
2022-12-05T12:31:12.789Z,75.01
2022-12-05T12:34:05.892Z,73.48
2022-12-05T12:37:04.408Z,74.73
2022-12-05T12:39:59.188Z,74.50
2022-12-05T12:42:46.302Z,74.55
2022-12-05T12:45:35.144Z,74.97
2022-12-05T12:48:23.668Z,75.22
2022-12-05T12:50:54.830Z,74.33
2022-12-05T12:53:34.303Z,75.12
2022-12-05T12:56:48.975Z,77.00
2022-12-05T12:59:46.492Z,77.76
2022-12-05T13:02:51.399Z,78.16
2022-12-05T13:05:35.217Z,77.84
2022-12-05T13:08:12.678Z,76.85
2022-12-05T13:10:47.749Z,77.22
2022-12-05T13:13:25.082Z,79.04
2022-12-05T13:16:00.760Z,78.58
2022-12-05T13:18:28.951Z,78.09
2022-12-05T13:21:00.482Z,77.29
2022-12-05T13:23:33.043Z,75.74
2022-12-05T13:26:02.540Z,75.88
2022-12-05T13:28:46.846Z,76.76
2022-12-05T13:31:18.095Z,76.02
2022-12-05T13:33:51.431Z,76.28
2022-12-05T13:36:40.829Z,76.33
2022-12-05T13:39:47.248Z,77.85
2022-12-05T13:42:25.109Z,75.96
2022-12-05T13:45:05.469Z,76.59
2022-12-05T13:48:00.740Z,75.87
2022-12-05T13:51:19.268Z,77.91
2022-12-05T13:54:19.319Z,76.51
2022-12-05T13:57:02.067Z,75.88
2022-12-05T14:00:10.138Z,75.42
2022-12-05T14:02:43.547Z,75.34
2022-12-05T14:05:19.604Z,76.72
2022-12-05T14:07:52.544Z,77.14
2022-12-05T14:10:29.400Z,77.68
2022-12-05T14:13:21.266Z,77.04
2022-12-05T14:15:51.363Z,76.38
2022-12-05T14:18:44.393Z,79.20
2022-12-05T14:21:26.240Z,77.83
2022-12-05T14:24:20.557Z,79.51
2022-12-05T14:27:11.759Z,80.82
2022-12-05T14:30:08.421Z,81.80
2022-12-05T14:32:41.127Z,81.74
2022-12-05T14:35:20.217Z,82.59
2022-12-05T14:38:04.995Z,82.53
2022-12-05T14:40:39.132Z,83.31
2022-12-05T14:43:28.158Z,83.00
2022-12-05T14:46:04.097Z,83.54
2022-12-05T14:48:47.780Z,84.43
2022-12-05T14:51:33.499Z,85.02
2022-12-05T14:54:20.503Z,82.60
2022-12-05T14:56:54.586Z,82.75
2022-12-05T14:59:30.167Z,83.17
2022-12-05T15:02:02.240Z,83.95
2022-12-05T15:04:59.185Z,84.70
2022-12-05T15:07:36.588Z,82.72
2022-12-05T15:10:33.858Z,82.26
2022-12-05T15:13:11.270Z,82.16
2022-12-05T15:15:43.166Z,84.42
2022-12-05T15:18:39.822Z,83.35
2022-12-05T15:21:33.658Z,86.51
2022-12-05T15:24:13.744Z,87.03
2022-12-05T15:26:58.088Z,88.86
2022-12-05T15:29:33.136Z,89.00
2022-12-05T15:32:11.634Z,88.61
2022-12-05T15:34:47.739Z,89.05
2022-12-05T15:37:24.043Z,85.55
2022-12-05T15:40:04.911Z,86.94
2022-12-05T15:42:39.820Z,84.61
2022-12-05T15:45:15.811Z,86.08
2022-12-05T15:47:52.921Z,86.19
2022-12-05T15:50:52.359Z,86.24
2022-12-05T15:53:43.948Z,86.91
2022-12-05T15:56:45.984Z,89.18
2022-12-05T15:59:23.419Z,91.83
2022-12-05T16:02:03.470Z,94.30
2022-12-05T16:04:43.706Z,96.04
2022-12-05T16:07:15.107Z,96.09
2022-12-05T16:09:45.373Z,97.29
2022-12-05T16:12:31.171Z,98.08
2022-12-05T16:15:05.400Z,96.84
2022-12-05T16:17:59.325Z,93.23
2022-12-05T16:20:36.335Z,89.81
2022-12-05T16:23:27.102Z,91.58
2022-12-05T16:26:12.124Z,93.71
2022-12-05T16:28:41.107Z,94.34
2022-12-05T16:31:14.645Z,95.61
2022-12-05T16:33:44.054Z,94.15
2022-12-05T16:36:38.558Z,93.97
2022-12-05T16:39:19.129Z,94.98
2022-12-05T16:41:47.834Z,95.34
2022-12-05T16:44:48.939Z,92.93
2022-12-05T16:47:46.760Z,93.41
2022-12-05T16:50:25.030Z,94.88
2022-12-05T16:53:10.110Z,95.93
2022-12-05T16:55:40.845Z,96.48
2022-12-05T16:58:33.328Z,96.81
2022-12-05T17:01:06.135Z,97.21
2022-12-05T17:03:39.694Z,97.71
2022-12-05T17:06:10.705Z,97.67
2022-12-05T17:09:00.818Z,97.72
2022-12-05T17:11:34.181Z,98.57
2022-12-05T17:14:03.454Z,98.62
2022-12-05T17:16:31.106Z,99.03
2022-12-05T17:19:03.234Z,99.16
2022-12-05T17:21:34.159Z,98.90
2022-12-05T17:24:02.381Z,98.60
2022-12-05T17:26:30.236Z,99.98
2022-12-05T17:28:57.728Z,99.61
2022-12-05T17:31:26.706Z,99.43
2022-12-05T17:33:55.523Z,99.22
2022-12-05T17:36:24.205Z,99.37
2022-12-05T17:38:51.726Z,100.00
2022-12-05T17:41:24.181Z,100.00
2022-12-05T17:43:53.565Z,100.00
2022-12-05T17:46:24.089Z,100.00
2022-12-05T17:48:52.991Z,100.00
2022-12-05T17:51:23.633Z,100.00
2022-12-05T17:53:53.111Z,100.00
2022-12-05T17:56:21.030Z,100.00
2022-12-05T17:58:50.080Z,100.00
2022-12-05T18:01:20.793Z,100.00
2022-12-05T18:03:52.229Z,100.00
2022-12-05T18:06:20.964Z,100.00
2022-12-05T18:08:49.815Z,100.00
2022-12-05T18:11:19.464Z,100.00
2022-12-05T18:13:47.518Z,100.00
2022-12-05T18:16:36.526Z,99.96
2022-12-05T18:19:04.141Z,99.28
2022-12-05T18:21:33.702Z,98.93
2022-12-05T18:24:01.880Z,99.83
2022-12-05T18:26:29.334Z,100.00
2022-12-05T18:28:58.971Z,100.00
2022-12-05T18:31:27.159Z,100.00
2022-12-05T18:34:01.980Z,100.00
2022-12-05T18:36:30.446Z,100.00
2022-12-05T18:39:01.918Z,100.00
2022-12-05T18:41:53.012Z,100.00
2022-12-05T18:44:29.874Z,100.00
2022-12-05T18:46:57.594Z,100.00
2022-12-05T18:49:26.466Z,100.00
2022-12-05T18:51:56.939Z,100.00
2022-12-05T18:54:24.562Z,100.00
2022-12-05T18:56:53.015Z,100.00
2022-12-05T18:59:22.914Z,100.00
2022-12-05T19:01:50.875Z,100.00
2022-12-05T19:04:21.625Z,100.00
2022-12-05T19:06:57.876Z,100.00
2022-12-05T19:09:30.162Z,100.00
2022-12-05T19:12:00.874Z,100.00
2022-12-05T19:14:33.177Z,100.00
2022-12-05T19:17:03.324Z,100.00
2022-12-05T19:19:31.965Z,100.00
2022-12-05T19:22:01.138Z,100.00
2022-12-05T19:24:30.984Z,100.00
2022-12-05T19:27:00.535Z,100.00
2022-12-05T19:29:29.301Z,100.00
2022-12-05T19:31:59.863Z,100.00
2022-12-05T19:34:27.581Z,100.00
2022-12-05T19:36:56.316Z,100.00
2022-12-05T19:39:30.408Z,100.00
2022-12-05T19:42:03.178Z,100.00
2022-12-05T19:44:31.079Z,100.00
2022-12-05T19:47:01.118Z,100.00
2022-12-05T19:49:30.421Z,100.00
2022-12-05T19:51:59.301Z,100.00
2022-12-05T19:54:28.699Z,100.00
2022-12-05T19:57:00.700Z,100.00
2022-12-05T19:59:29.125Z,100.00
2022-12-05T20:01:57.648Z,100.00
2022-12-05T20:04:27.485Z,100.00
2022-12-05T20:06:56.521Z,100.00
2022-12-05T20:09:28.962Z,100.00
2022-12-05T20:11:56.721Z,100.00
2022-12-05T20:14:27.974Z,100.00
2022-12-05T20:16:55.902Z,100.00
2022-12-05T20:19:26.542Z,100.00
2022-12-05T20:21:55.612Z,100.00
2022-12-05T20:24:23.268Z,100.00
2022-12-05T20:26:52.196Z,100.00
2022-12-05T20:29:20.720Z,100.00
2022-12-05T20:31:54.299Z,100.00
2022-12-05T20:34:22.289Z,100.00
2022-12-05T20:36:49.882Z,100.00
2022-12-05T20:39:18.361Z,100.00
2022-12-05T20:41:46.347Z,100.00
2022-12-05T20:44:18.278Z,100.00
2022-12-05T20:46:47.327Z,100.00
2022-12-05T20:49:16.350Z,100.00
2022-12-05T20:51:46.234Z,100.00
2022-12-05T20:54:18.263Z,100.00
2022-12-05T20:56:47.172Z,100.00
2022-12-05T20:59:15.057Z,100.00
2022-12-05T21:01:42.856Z,100.00
2022-12-05T21:04:12.410Z,100.00
2022-12-05T21:06:42.999Z,100.00
2022-12-05T21:09:16.167Z,100.00
2022-12-05T21:11:44.747Z,100.00
2022-12-05T21:14:12.518Z,100.00
2022-12-05T21:16:42.964Z,100.00
2022-12-05T21:19:11.703Z,100.00
2022-12-05T21:21:39.494Z,100.00
2022-12-05T21:24:09.361Z,100.00
2022-12-05T21:26:38.160Z,100.00
2022-12-05T21:29:10.639Z,100.00
2022-12-05T21:31:42.206Z,100.00
2022-12-05T21:34:20.489Z,100.00
2022-12-05T21:36:48.645Z,100.00
2022-12-05T21:39:16.560Z,100.00
2022-12-05T21:41:44.479Z,100.00
2022-12-05T21:44:14.845Z,100.00
2022-12-05T21:46:42.438Z,100.00
2022-12-05T21:49:10.106Z,100.00
2022-12-05T21:51:40.156Z,100.00
2022-12-05T21:54:07.747Z,100.00
2022-12-05T21:56:35.802Z,100.00
2022-12-05T21:59:03.236Z,100.00
2022-12-05T22:01:30.994Z,100.00
2022-12-05T22:04:00.002Z,100.00
2022-12-05T22:06:28.403Z,100.00
2022-12-05T22:08:56.574Z,100.00
2022-12-05T22:11:25.410Z,100.00
2022-12-05T22:13:53.391Z,100.00
2022-12-05T22:16:21.653Z,100.00
2022-12-05T22:18:49.916Z,100.00
2022-12-05T22:21:21.297Z,100.00
2022-12-05T22:23:49.830Z,100.00
2022-12-05T22:26:19.352Z,100.00
2022-12-05T22:28:47.965Z,100.00
2022-12-05T22:31:17.283Z,100.00
2022-12-05T22:33:46.181Z,100.00
2022-12-05T22:36:17.246Z,100.00
2022-12-05T22:38:47.544Z,100.00
2022-12-05T22:41:21.208Z,100.00
2022-12-05T22:43:53.493Z,100.00
2022-12-05T22:46:22.152Z,100.00
2022-12-05T22:48:51.193Z,100.00
2022-12-05T22:51:21.713Z,100.00
2022-12-05T22:53:53.288Z,100.00
2022-12-05T22:56:22.740Z,100.00
2022-12-05T22:58:55.442Z,100.00
2022-12-05T23:01:28.237Z,100.00
2022-12-05T23:03:59.850Z,100.00
2022-12-05T23:06:29.072Z,100.00
2022-12-05T23:08:57.333Z,100.00
2022-12-05T23:11:26.697Z,100.00
2022-12-05T23:14:01.448Z,100.00
2022-12-05T23:16:32.628Z,100.00
2022-12-05T23:19:04.315Z,100.00
2022-12-05T23:21:39.091Z,100.00
2022-12-05T23:24:10.459Z,100.00
2022-12-05T23:26:43.212Z,100.00
2022-12-05T23:29:12.485Z,100.00
2022-12-05T23:31:41.185Z,100.00
2022-12-05T23:34:09.379Z,100.00
2022-12-05T23:36:36.919Z,100.00
2022-12-05T23:39:06.036Z,100.00
2022-12-05T23:41:33.844Z,100.00
2022-12-05T23:44:01.339Z,100.00
2022-12-05T23:46:30.058Z,100.00
2022-12-05T23:48:58.248Z,100.00
2022-12-05T23:51:29.793Z,100.00
2022-12-05T23:54:01.426Z,100.00
2022-12-05T23:56:34.091Z,100.00
2022-12-05T23:59:03.946Z,100.00
